createdAt,value
2019-03-05T00:00:42.326Z,4.90
2019-03-05T00:01:21.857Z,4.87
2019-03-05T00:01:57.133Z,4.10
2019-03-05T00:02:30.594Z,4.45
2019-03-05T00:03:04.117Z,4.58
2019-03-05T00:03:37.614Z,5.10
2019-03-05T00:04:11.076Z,5.72
2019-03-05T00:04:44.529Z,5.25
2019-03-05T00:05:18.178Z,5.40
2019-03-05T00:05:52.275Z,5.37
2019-03-05T00:06:25.929Z,5.10
2019-03-05T00:06:59.326Z,5.42
2019-03-05T00:07:32.801Z,5.40
2019-03-05T00:08:06.266Z,5.35
2019-03-05T00:08:39.732Z,4.30
2019-03-05T00:09:19.628Z,4.83
2019-03-05T00:09:53.022Z,5.15
2019-03-05T00:10:26.477Z,4.45
2019-03-05T00:11:00.041Z,5.35
2019-03-05T00:11:33.509Z,5.35
2019-03-05T00:12:07.034Z,5.30
2019-03-05T00:12:40.494Z,5.20
2019-03-05T00:13:13.950Z,5.42
2019-03-05T00:13:47.412Z,5.00
2019-03-05T00:14:23.317Z,5.45
2019-03-05T00:14:56.800Z,5.17
2019-03-05T00:15:30.535Z,5.58
2019-03-05T00:16:04.022Z,5.62
2019-03-05T00:16:37.476Z,5.10
2019-03-05T00:17:10.864Z,5.53
2019-03-05T00:17:44.324Z,6.12
2019-03-05T00:18:17.793Z,5.47
2019-03-05T00:18:51.240Z,5.70
2019-03-05T00:19:24.625Z,5.45
2019-03-05T00:19:58.085Z,5.10
2019-03-05T00:20:31.549Z,5.30
2019-03-05T00:21:05.040Z,6.67
2019-03-05T00:21:39.366Z,6.08
2019-03-05T00:22:12.786Z,7.62
2019-03-05T00:22:46.257Z,7.40
2019-03-05T00:23:44.069Z,7.50
2019-03-05T00:24:35.261Z,6.45
2019-03-05T00:25:12.464Z,7.05
2019-03-05T00:25:45.963Z,5.60
2019-03-05T00:26:21.192Z,8.73
2019-03-05T00:26:54.585Z,7.15
2019-03-05T00:27:28.949Z,7.80
2019-03-05T00:28:04.385Z,6.17
2019-03-05T00:29:05.948Z,8.20
2019-03-05T00:29:47.002Z,6.20
2019-03-05T00:30:40.308Z,6.20
2019-03-05T00:31:20.068Z,6.58
2019-03-05T00:31:53.541Z,6.40
2019-03-05T00:32:27.128Z,5.87
2019-03-05T00:33:02.795Z,6.58
2019-03-05T00:33:57.602Z,7.80
2019-03-05T00:34:33.512Z,5.95
2019-03-05T00:35:12.830Z,5.42
2019-03-05T00:35:52.868Z,6.37
2019-03-05T00:36:31.910Z,6.20
2019-03-05T00:37:17.557Z,6.00
2019-03-05T00:38:08.864Z,7.00
2019-03-05T00:38:45.517Z,5.83
2019-03-05T00:39:31.467Z,5.78
2019-03-05T00:40:07.753Z,6.22
2019-03-05T00:40:53.316Z,6.33
2019-03-05T00:41:37.910Z,6.83
2019-03-05T00:42:30.529Z,5.83
2019-03-05T00:43:23.144Z,6.10
2019-03-05T00:44:14.270Z,6.15
2019-03-05T00:44:53.757Z,7.10
2019-03-05T00:45:46.381Z,6.33
2019-03-05T00:46:46.222Z,5.83
2019-03-05T00:47:32.489Z,5.80
2019-03-05T00:48:28.084Z,5.97
2019-03-05T00:49:04.746Z,5.22
2019-03-05T00:50:06.465Z,6.17
2019-03-05T00:51:01.789Z,5.50
2019-03-05T00:51:53.213Z,5.97
2019-03-05T00:52:39.166Z,5.67
2019-03-05T00:53:19.412Z,5.30
2019-03-05T00:53:58.343Z,5.83
2019-03-05T00:54:35.800Z,5.58
2019-03-05T00:55:15.834Z,5.80
2019-03-05T00:56:09.811Z,6.40
2019-03-05T00:56:50.056Z,5.95
2019-03-05T00:57:37.191Z,5.67
2019-03-05T00:58:29.799Z,5.87
2019-03-05T00:59:34.614Z,5.47
2019-03-05T01:00:16.443Z,5.72
2019-03-05T01:00:57.140Z,6.03
2019-03-05T01:01:36.787Z,5.40
2019-03-05T01:02:22.773Z,5.10
2019-03-05T01:03:10.058Z,5.22
2019-03-05T01:04:05.360Z,5.50
2019-03-05T01:04:56.434Z,4.60
2019-03-05T01:05:37.743Z,5.00
2019-03-05T01:06:16.713Z,5.30
2019-03-05T01:06:50.192Z,5.20
2019-03-05T01:07:24.377Z,4.70
2019-03-05T01:07:57.797Z,5.28
2019-03-05T01:08:31.337Z,5.12
2019-03-05T01:09:06.736Z,4.40
2019-03-05T01:09:40.205Z,5.12
2019-03-05T01:10:14.139Z,5.65
2019-03-05T01:10:47.596Z,5.60
2019-03-05T01:11:21.648Z,5.67
2019-03-05T01:11:55.120Z,5.17
2019-03-05T01:12:28.960Z,5.62
2019-03-05T01:13:02.440Z,4.90
2019-03-05T01:13:35.925Z,5.08
2019-03-05T01:14:10.073Z,5.95
2019-03-05T01:14:43.807Z,4.90
2019-03-05T01:15:17.360Z,4.80
2019-03-05T01:15:50.893Z,5.15
2019-03-05T01:16:30.165Z,4.90
2019-03-05T01:17:03.908Z,5.00
2019-03-05T01:17:37.313Z,4.53
2019-03-05T01:18:10.774Z,4.80
2019-03-05T01:18:44.228Z,5.30
2019-03-05T01:19:17.697Z,4.60
2019-03-05T01:19:51.140Z,4.85
2019-03-05T01:20:24.615Z,5.10
2019-03-05T01:20:58.073Z,4.72
2019-03-05T01:21:31.541Z,4.62
2019-03-05T01:22:05.378Z,5.47
2019-03-05T01:22:39.182Z,5.15
2019-03-05T01:23:12.668Z,5.08
2019-03-05T01:23:46.071Z,5.08
2019-03-05T01:24:19.528Z,5.08
2019-03-05T01:24:52.976Z,4.60
2019-03-05T01:25:27.525Z,4.75
2019-03-05T01:26:00.980Z,4.47
2019-03-05T01:26:34.467Z,4.47
2019-03-05T01:27:07.940Z,4.55
2019-03-05T01:27:41.629Z,4.53
2019-03-05T01:28:15.079Z,4.37
2019-03-05T01:28:48.565Z,4.53
2019-03-05T01:29:22.026Z,4.22
2019-03-05T01:29:55.489Z,4.33
2019-03-05T01:30:37.681Z,4.20
2019-03-05T01:31:36.439Z,4.10
2019-03-05T01:32:21.674Z,4.30
2019-03-05T01:33:02.148Z,4.78
2019-03-05T01:33:42.360Z,4.95
2019-03-05T01:34:30.226Z,4.22
2019-03-05T01:35:32.448Z,4.67
2019-03-05T01:36:10.071Z,4.35
2019-03-05T01:36:46.523Z,4.90
2019-03-05T01:37:19.972Z,4.42
2019-03-05T01:37:53.441Z,3.80
2019-03-05T01:38:27.408Z,4.08
2019-03-05T01:39:26.133Z,4.60
2019-03-05T01:40:18.749Z,4.30
2019-03-05T01:40:56.244Z,4.53
2019-03-05T01:41:29.768Z,4.05
2019-03-05T01:42:03.721Z,4.40
2019-03-05T01:42:37.172Z,4.42
2019-03-05T01:43:10.635Z,3.90
2019-03-05T01:43:44.129Z,4.12
2019-03-05T01:44:17.762Z,4.50
2019-03-05T01:44:51.147Z,4.22
2019-03-05T01:45:24.609Z,5.08
2019-03-05T01:45:57.989Z,3.80
2019-03-05T01:46:31.461Z,4.28
2019-03-05T01:47:05.133Z,3.98
2019-03-05T01:47:38.589Z,3.92
2019-03-05T01:48:11.977Z,4.10
2019-03-05T01:48:46.098Z,3.83
2019-03-05T01:49:19.569Z,3.87
2019-03-05T01:49:53.040Z,4.22
2019-03-05T01:50:26.513Z,4.37
2019-03-05T01:50:59.991Z,4.75
2019-03-05T01:51:33.455Z,3.70
2019-03-05T01:52:06.904Z,4.47
2019-03-05T01:52:40.367Z,4.40
2019-03-05T01:53:13.760Z,4.50
2019-03-05T01:53:47.230Z,3.95
2019-03-05T01:54:20.729Z,4.05
2019-03-05T01:54:54.228Z,4.03
2019-03-05T01:55:27.721Z,3.95
2019-03-05T01:56:01.168Z,3.92
2019-03-05T01:56:34.637Z,4.30
2019-03-05T01:57:08.080Z,3.60
2019-03-05T01:57:41.557Z,3.77
2019-03-05T01:58:15.029Z,4.10
2019-03-05T01:58:48.485Z,3.85
2019-03-05T01:59:22.207Z,3.75
2019-03-05T01:59:55.656Z,4.22
2019-03-05T02:00:29.213Z,3.83
2019-03-05T02:01:02.760Z,4.58
2019-03-05T02:01:36.237Z,3.90
2019-03-05T02:02:09.729Z,3.90
2019-03-05T02:02:43.181Z,3.87
2019-03-05T02:03:16.640Z,4.40
2019-03-05T02:03:50.101Z,3.90
2019-03-05T02:04:24.620Z,4.45
2019-03-05T02:04:58.089Z,4.45
2019-03-05T02:05:31.558Z,4.35
2019-03-05T02:06:05.316Z,4.35
2019-03-05T02:06:38.766Z,4.03
2019-03-05T02:07:12.228Z,4.70
2019-03-05T02:07:45.714Z,4.20
2019-03-05T02:08:19.180Z,4.60
2019-03-05T02:08:52.645Z,4.37
2019-03-05T02:09:27.024Z,4.30
2019-03-05T02:10:00.809Z,4.40
2019-03-05T02:10:34.272Z,4.00
2019-03-05T02:11:07.994Z,5.25
2019-03-05T02:11:41.462Z,4.60
2019-03-05T02:12:14.913Z,4.40
2019-03-05T02:12:48.393Z,4.53
2019-03-05T02:13:21.796Z,4.35
2019-03-05T02:13:55.262Z,4.55
2019-03-05T02:14:28.747Z,5.03
2019-03-05T02:15:02.218Z,4.80
2019-03-05T02:15:35.688Z,4.35
2019-03-05T02:16:09.146Z,4.12
2019-03-05T02:16:42.603Z,4.30
2019-03-05T02:17:16.073Z,4.37
2019-03-05T02:17:49.553Z,4.65
2019-03-05T02:18:25.193Z,4.37
2019-03-05T02:19:16.599Z,4.45
2019-03-05T02:19:50.305Z,4.75
2019-03-05T02:20:24.343Z,4.40
2019-03-05T02:20:57.792Z,4.92
2019-03-05T02:21:31.192Z,4.53
2019-03-05T02:22:05.377Z,4.55
2019-03-05T02:22:50.230Z,4.55
2019-03-05T02:23:26.377Z,4.75
2019-03-05T02:24:17.873Z,4.30
2019-03-05T02:25:11.028Z,4.62
2019-03-05T02:25:55.809Z,3.95
2019-03-05T02:26:47.034Z,3.98
2019-03-05T02:27:45.789Z,4.30
2019-03-05T02:28:41.155Z,4.45
2019-03-05T02:29:31.445Z,4.92
2019-03-05T02:30:24.054Z,4.20
2019-03-05T02:31:03.409Z,4.87
2019-03-05T02:31:56.032Z,3.62
2019-03-05T02:32:39.746Z,4.00
2019-03-05T02:33:25.318Z,4.08
2019-03-05T02:34:30.046Z,4.30
2019-03-05T02:35:06.694Z,4.75
2019-03-05T02:35:55.231Z,5.00
2019-03-05T02:36:43.975Z,5.05
2019-03-05T02:37:36.582Z,5.72
2019-03-05T02:38:32.113Z,4.62
2019-03-05T02:39:43.024Z,4.10
2019-03-05T02:40:30.622Z,5.00
2019-03-05T02:41:08.395Z,4.17
2019-03-05T02:41:55.509Z,4.10
2019-03-05T02:42:44.219Z,4.15
2019-03-05T02:43:27.848Z,4.55
2019-03-05T02:44:15.283Z,4.62
2019-03-05T02:45:01.648Z,4.17
2019-03-05T02:45:47.015Z,4.05
2019-03-05T02:46:33.943Z,4.53
2019-03-05T02:47:20.498Z,3.83
2019-03-05T02:48:05.680Z,3.90
2019-03-05T02:49:04.326Z,3.95
2019-03-05T02:49:46.330Z,4.10
2019-03-05T02:50:30.267Z,4.45
2019-03-05T02:51:09.978Z,4.42
2019-03-05T02:52:11.519Z,4.00
2019-03-05T02:52:48.794Z,3.75
2019-03-05T02:53:28.334Z,4.00
2019-03-05T02:54:23.517Z,3.70
2019-03-05T02:55:14.685Z,4.50
2019-03-05T02:56:06.052Z,3.90
2019-03-05T02:56:41.954Z,3.52
2019-03-05T02:57:14.794Z,3.92
2019-03-05T02:57:47.555Z,4.25
2019-03-05T02:58:20.316Z,3.92
2019-03-05T02:58:53.086Z,4.03
2019-03-05T02:59:26.472Z,4.15
2019-03-05T02:59:59.932Z,4.37
2019-03-05T03:00:42.280Z,4.00
2019-03-05T03:01:38.162Z,4.05
2019-03-05T03:02:39.657Z,4.25
2019-03-05T03:03:20.614Z,3.75
2019-03-05T03:03:57.907Z,3.25
2019-03-05T03:04:34.585Z,3.92
2019-03-05T03:05:16.789Z,4.45
2019-03-05T03:06:02.767Z,4.10
2019-03-05T03:06:36.800Z,3.65
2019-03-05T03:07:10.285Z,3.80
2019-03-05T03:07:43.746Z,3.72
2019-03-05T03:08:17.195Z,4.30
2019-03-05T03:08:53.306Z,3.95
2019-03-05T03:09:51.574Z,3.80
2019-03-05T03:10:25.360Z,4.08
2019-03-05T03:10:58.843Z,3.52
2019-03-05T03:11:32.375Z,4.10
2019-03-05T03:12:05.837Z,4.53
2019-03-05T03:12:39.339Z,3.65
2019-03-05T03:13:12.789Z,3.35
2019-03-05T03:13:46.268Z,3.52
2019-03-05T03:14:19.653Z,3.85
2019-03-05T03:14:53.128Z,3.47
2019-03-05T03:15:26.573Z,3.95
2019-03-05T03:16:00.041Z,3.22
2019-03-05T03:16:33.505Z,3.87
2019-03-05T03:17:07.046Z,3.77
2019-03-05T03:17:40.509Z,3.60
2019-03-05T03:18:14.049Z,3.80
2019-03-05T03:18:47.428Z,3.45
2019-03-05T03:19:21.082Z,3.60
2019-03-05T03:19:54.599Z,3.40
2019-03-05T03:20:28.097Z,2.90
2019-03-05T03:21:01.573Z,3.60
2019-03-05T03:21:35.073Z,2.98
2019-03-05T03:22:08.534Z,3.50
2019-03-05T03:22:42.013Z,3.90
2019-03-05T03:23:15.442Z,3.50
2019-03-05T03:23:48.832Z,3.67
2019-03-05T03:24:22.314Z,3.87
2019-03-05T03:24:55.773Z,3.50
2019-03-05T03:25:29.249Z,3.33
2019-03-05T03:26:02.801Z,3.00
2019-03-05T03:26:36.241Z,3.45
2019-03-05T03:27:09.705Z,2.92
2019-03-05T03:27:43.866Z,3.50
2019-03-05T03:28:17.302Z,3.65
2019-03-05T03:28:50.752Z,3.10
2019-03-05T03:29:24.198Z,3.20
2019-03-05T03:29:57.655Z,2.77
2019-03-05T03:30:31.156Z,3.20
2019-03-05T03:31:04.662Z,2.85
2019-03-05T03:31:38.125Z,3.05
2019-03-05T03:32:11.579Z,3.35
2019-03-05T03:32:45.428Z,2.77
2019-03-05T03:33:18.812Z,2.70
2019-03-05T03:33:52.272Z,3.83
2019-03-05T03:34:25.898Z,2.98
2019-03-05T03:34:59.365Z,3.50
2019-03-05T03:35:32.834Z,3.62
2019-03-05T03:36:06.293Z,2.85
2019-03-05T03:36:39.767Z,2.77
2019-03-05T03:37:13.126Z,2.85
2019-03-05T03:37:46.598Z,3.70
2019-03-05T03:38:20.058Z,2.75
2019-03-05T03:38:56.539Z,3.30
2019-03-05T03:39:29.994Z,2.80
2019-03-05T03:40:06.067Z,3.40
2019-03-05T03:40:38.652Z,2.85
2019-03-05T03:41:12.161Z,2.98
2019-03-05T03:41:45.639Z,2.83
2019-03-05T03:42:19.093Z,3.42
2019-03-05T03:42:52.862Z,3.02
2019-03-05T03:43:26.324Z,3.50
2019-03-05T03:43:59.770Z,2.70
2019-03-05T03:44:33.222Z,3.22
2019-03-05T03:45:07.578Z,2.90
2019-03-05T03:45:41.049Z,3.05
2019-03-05T03:46:14.493Z,3.25
2019-03-05T03:46:48.049Z,2.72
2019-03-05T03:47:21.494Z,3.00
2019-03-05T03:47:54.970Z,2.58
2019-03-05T03:48:28.422Z,3.22
2019-03-05T03:49:01.878Z,3.50
2019-03-05T03:49:35.334Z,3.05
2019-03-05T03:50:08.929Z,2.87
2019-03-05T03:50:42.391Z,3.10
2019-03-05T03:51:15.913Z,3.00
2019-03-05T03:51:51.399Z,3.17
2019-03-05T03:52:24.558Z,3.35
2019-03-05T03:52:58.054Z,2.80
2019-03-05T03:53:31.513Z,2.95
2019-03-05T03:54:04.978Z,3.08
2019-03-05T03:54:38.476Z,3.12
2019-03-05T03:55:12.578Z,3.10
2019-03-05T03:55:46.026Z,2.65
2019-03-05T03:56:19.477Z,2.75
2019-03-05T03:56:52.929Z,3.70
2019-03-05T03:57:26.409Z,3.27
2019-03-05T03:57:59.884Z,3.08
2019-03-05T03:58:33.418Z,3.40
2019-03-05T03:59:06.877Z,2.80
2019-03-05T03:59:40.334Z,3.22
2019-03-05T04:00:15.256Z,2.70
2019-03-05T04:00:48.710Z,3.58
2019-03-05T04:01:22.169Z,3.20
2019-03-05T04:01:55.617Z,3.35
2019-03-05T04:02:29.110Z,3.52
2019-03-05T04:03:02.786Z,2.50
2019-03-05T04:03:36.513Z,3.75
2019-03-05T04:04:09.970Z,2.67
2019-03-05T04:04:43.422Z,3.00
2019-03-05T04:05:16.873Z,3.17
2019-03-05T04:05:50.269Z,3.65
2019-03-05T04:06:23.744Z,3.40
2019-03-05T04:06:57.202Z,2.87
2019-03-05T04:07:30.751Z,3.42
2019-03-05T04:08:04.321Z,2.77
2019-03-05T04:08:37.809Z,2.80
2019-03-05T04:09:11.461Z,3.45
2019-03-05T04:09:44.846Z,3.00
2019-03-05T04:10:18.382Z,4.05
2019-03-05T04:10:51.962Z,3.22
2019-03-05T04:11:25.409Z,2.95
2019-03-05T04:11:58.868Z,3.30
2019-03-05T04:12:32.332Z,3.20
2019-03-05T04:13:05.863Z,3.35
2019-03-05T04:13:39.280Z,3.10
2019-03-05T04:14:12.736Z,3.42
2019-03-05T04:14:46.209Z,2.90
2019-03-05T04:15:20.283Z,3.02
2019-03-05T04:15:53.754Z,3.62
2019-03-05T04:16:27.142Z,2.60
2019-03-05T04:17:00.607Z,3.40
2019-03-05T04:17:33.974Z,3.42
2019-03-05T04:18:07.442Z,3.37
2019-03-05T04:18:40.952Z,3.25
2019-03-05T04:19:16.472Z,3.87
2019-03-05T04:19:49.967Z,3.10
2019-03-05T04:20:31.548Z,3.75
2019-03-05T04:21:04.994Z,3.22
2019-03-05T04:21:38.396Z,3.22
2019-03-05T04:22:11.770Z,4.25
2019-03-05T04:22:45.242Z,3.67
2019-03-05T04:23:18.717Z,3.33
2019-03-05T04:23:52.144Z,3.17
2019-03-05T04:24:25.625Z,2.77
2019-03-05T04:24:59.099Z,3.62
2019-03-05T04:25:32.644Z,3.45
2019-03-05T04:26:06.105Z,3.67
2019-03-05T04:26:39.552Z,3.92
2019-03-05T04:27:13.021Z,3.67
2019-03-05T04:27:46.546Z,4.35
2019-03-05T04:28:19.994Z,3.40
2019-03-05T04:28:53.453Z,3.98
2019-03-05T04:29:26.921Z,3.52
2019-03-05T04:30:00.450Z,3.52
2019-03-05T04:30:33.968Z,3.95
2019-03-05T04:31:07.466Z,4.15
2019-03-05T04:31:40.935Z,4.10
2019-03-05T04:32:14.321Z,3.70
2019-03-05T04:32:47.802Z,4.12
2019-03-05T04:33:21.249Z,4.08
2019-03-05T04:33:54.752Z,3.80
2019-03-05T04:34:28.220Z,3.33
2019-03-05T04:35:01.678Z,3.98
2019-03-05T04:35:35.141Z,3.90
2019-03-05T04:36:08.551Z,3.42
2019-03-05T04:36:41.954Z,3.75
2019-03-05T04:37:15.425Z,3.80
2019-03-05T04:37:48.828Z,3.45
2019-03-05T04:38:22.291Z,3.85
2019-03-05T04:38:55.793Z,4.08
2019-03-05T04:39:29.169Z,3.72
2019-03-05T04:40:03.369Z,3.65
2019-03-05T04:40:37.081Z,4.05
2019-03-05T04:41:10.561Z,4.00
2019-03-05T04:41:43.938Z,4.33
2019-03-05T04:42:17.413Z,3.62
2019-03-05T04:42:50.793Z,3.65
2019-03-05T04:43:24.193Z,4.20
2019-03-05T04:43:57.676Z,3.70
2019-03-05T04:44:42.872Z,3.45
2019-03-05T04:45:27.273Z,4.30
2019-03-05T04:46:05.197Z,4.37
2019-03-05T04:46:51.046Z,3.75
2019-03-05T04:47:24.504Z,4.20
2019-03-05T04:47:57.989Z,4.10
2019-03-05T04:48:31.483Z,4.03
2019-03-05T04:49:21.696Z,4.62
2019-03-05T04:50:17.232Z,3.72
2019-03-05T04:50:57.184Z,3.80
2019-03-05T04:51:38.650Z,4.08
2019-03-05T04:52:14.593Z,3.92
2019-03-05T04:52:48.048Z,4.30
2019-03-05T04:53:21.529Z,4.10
2019-03-05T04:53:55.121Z,4.75
2019-03-05T04:54:28.739Z,4.65
2019-03-05T04:55:02.214Z,4.55
2019-03-05T04:55:35.686Z,4.08
2019-03-05T04:56:09.153Z,4.50
2019-03-05T04:56:42.615Z,4.30
2019-03-05T04:57:16.021Z,4.85
2019-03-05T04:57:49.494Z,4.90
2019-03-05T04:58:23.001Z,4.30
2019-03-05T04:58:56.482Z,4.60
2019-03-05T04:59:29.986Z,4.55
2019-03-05T05:00:05.146Z,4.15
2019-03-05T05:00:38.610Z,4.37
2019-03-05T05:01:12.084Z,4.42
2019-03-05T05:01:45.545Z,4.58
2019-03-05T05:02:19.030Z,4.45
2019-03-05T05:02:52.427Z,4.62
2019-03-05T05:03:25.905Z,4.70
2019-03-05T05:03:59.361Z,5.45
2019-03-05T05:04:32.891Z,4.20
2019-03-05T05:05:06.859Z,4.87
2019-03-05T05:05:40.327Z,4.37
2019-03-05T05:06:13.798Z,4.33
2019-03-05T05:06:47.197Z,5.70
2019-03-05T05:07:20.655Z,5.00
2019-03-05T05:07:54.056Z,5.15
2019-03-05T05:08:27.530Z,4.90
2019-03-05T05:09:00.912Z,5.55
2019-03-05T05:09:34.383Z,6.03
2019-03-05T05:10:07.990Z,5.00
2019-03-05T05:10:41.377Z,5.05
2019-03-05T05:11:14.772Z,5.05
2019-03-05T05:11:48.239Z,4.90
2019-03-05T05:12:21.637Z,4.83
2019-03-05T05:12:55.033Z,4.65
2019-03-05T05:13:28.506Z,4.85
2019-03-05T05:14:02.057Z,5.03
2019-03-05T05:14:35.461Z,4.78
2019-03-05T05:15:28.075Z,5.83
2019-03-05T05:16:01.854Z,4.42
2019-03-05T05:16:35.337Z,4.92
2019-03-05T05:17:08.895Z,5.58
2019-03-05T05:17:42.377Z,4.35
2019-03-05T05:18:15.848Z,5.25
2019-03-05T05:18:49.257Z,5.00
2019-03-05T05:19:22.678Z,4.97
2019-03-05T05:19:56.060Z,5.53
2019-03-05T05:20:29.753Z,5.08
2019-03-05T05:21:03.229Z,5.15
2019-03-05T05:21:36.705Z,5.40
2019-03-05T05:22:10.193Z,5.70
2019-03-05T05:22:43.859Z,5.33
2019-03-05T05:23:17.321Z,5.33
2019-03-05T05:23:50.777Z,5.17
2019-03-05T05:24:24.150Z,5.10
2019-03-05T05:24:57.618Z,5.35
2019-03-05T05:25:31.041Z,6.00
2019-03-05T05:26:04.519Z,5.65
2019-03-05T05:26:37.917Z,5.80
2019-03-05T05:27:11.482Z,5.67
2019-03-05T05:27:44.885Z,4.97
2019-03-05T05:28:18.277Z,5.70
2019-03-05T05:28:51.829Z,5.12
2019-03-05T05:29:25.219Z,5.65
2019-03-05T05:29:58.702Z,5.45
2019-03-05T05:30:35.780Z,5.65
2019-03-05T05:31:09.245Z,5.30
2019-03-05T05:31:42.715Z,5.33
2019-03-05T05:32:16.189Z,5.83
2019-03-05T05:32:49.648Z,5.47
2019-03-05T05:33:23.110Z,5.47
2019-03-05T05:33:56.591Z,5.10
2019-03-05T05:34:30.053Z,5.87
2019-03-05T05:35:03.501Z,5.65
2019-03-05T05:35:37.026Z,6.08
2019-03-05T05:36:10.505Z,5.55
2019-03-05T05:36:43.981Z,6.08
2019-03-05T05:37:17.467Z,5.80
2019-03-05T05:37:50.884Z,6.08
2019-03-05T05:38:24.269Z,6.37
2019-03-05T05:38:57.736Z,5.65
2019-03-05T05:39:49.049Z,6.10
2019-03-05T05:40:26.744Z,6.33
2019-03-05T05:41:00.286Z,6.00
2019-03-05T05:41:33.943Z,4.80
2019-03-05T05:42:07.402Z,6.30
2019-03-05T05:42:40.861Z,5.75
2019-03-05T05:43:15.604Z,5.53
2019-03-05T05:43:49.124Z,5.90
2019-03-05T05:44:22.527Z,5.70
2019-03-05T05:44:55.934Z,5.97
2019-03-05T05:45:34.357Z,5.65
2019-03-05T05:46:07.742Z,6.30
2019-03-05T05:46:41.283Z,6.45
2019-03-05T05:47:14.753Z,5.83
2019-03-05T05:47:48.217Z,5.83
2019-03-05T05:48:21.678Z,5.58
2019-03-05T05:48:55.057Z,5.95
2019-03-05T05:49:28.444Z,6.72
2019-03-05T05:50:01.932Z,6.75
2019-03-05T05:50:35.417Z,6.53
2019-03-05T05:51:08.882Z,6.53
2019-03-05T05:51:44.351Z,5.83
2019-03-05T05:52:17.489Z,5.45
2019-03-05T05:52:50.962Z,6.20
2019-03-05T05:53:24.425Z,7.00
2019-03-05T05:53:57.905Z,5.72
2019-03-05T05:54:31.380Z,6.55
2019-03-05T05:55:05.007Z,5.92
2019-03-05T05:55:38.602Z,6.10
2019-03-05T05:56:12.093Z,6.95
2019-03-05T05:56:45.594Z,7.28
2019-03-05T05:57:19.070Z,6.03
2019-03-05T05:57:52.531Z,6.00
2019-03-05T05:58:26.032Z,6.20
2019-03-05T05:58:59.411Z,6.15
2019-03-05T05:59:32.794Z,6.33
2019-03-05T06:00:07.366Z,5.37
2019-03-05T06:00:42.909Z,6.25
2019-03-05T06:01:16.372Z,6.60
2019-03-05T06:01:49.855Z,5.78
2019-03-05T06:02:23.318Z,6.05
2019-03-05T06:02:56.782Z,6.40
2019-03-05T06:03:30.409Z,6.35
2019-03-05T06:04:03.890Z,6.50
2019-03-05T06:04:37.361Z,6.83
2019-03-05T06:05:11.014Z,6.12
2019-03-05T06:05:44.500Z,6.35
2019-03-05T06:06:18.746Z,5.90
2019-03-05T06:06:52.243Z,6.17
2019-03-05T06:07:25.714Z,6.20
2019-03-05T06:07:59.203Z,6.20
2019-03-05T06:08:32.667Z,5.90
2019-03-05T06:09:06.728Z,5.83
2019-03-05T06:09:40.197Z,6.35
2019-03-05T06:10:14.079Z,6.12
2019-03-05T06:10:47.707Z,6.00
2019-03-05T06:11:21.198Z,6.47
2019-03-05T06:11:54.589Z,6.42
2019-03-05T06:12:27.984Z,6.33
2019-03-05T06:13:01.458Z,5.78
2019-03-05T06:13:34.990Z,6.65
2019-03-05T06:14:08.436Z,6.35
2019-03-05T06:14:41.897Z,5.95
2019-03-05T06:15:15.358Z,6.60
2019-03-05T06:15:48.809Z,5.83
2019-03-05T06:16:22.212Z,5.83
2019-03-05T06:16:55.686Z,5.85
2019-03-05T06:17:29.146Z,5.30
2019-03-05T06:18:02.545Z,6.28
2019-03-05T06:18:36.008Z,6.20
2019-03-05T06:19:09.391Z,6.40
2019-03-05T06:19:42.809Z,5.60
2019-03-05T06:20:16.282Z,5.87
2019-03-05T06:20:49.740Z,5.85
2019-03-05T06:21:23.207Z,4.97
2019-03-05T06:21:56.679Z,6.78
2019-03-05T06:22:30.082Z,5.90
2019-03-05T06:23:03.572Z,6.08
2019-03-05T06:23:36.956Z,6.33
2019-03-05T06:24:10.409Z,4.85
2019-03-05T06:24:43.810Z,6.30
2019-03-05T06:25:17.278Z,5.60
2019-03-05T06:25:50.739Z,5.58
2019-03-05T06:26:24.286Z,6.25
2019-03-05T06:26:57.745Z,5.45
2019-03-05T06:27:31.237Z,6.62
2019-03-05T06:28:04.701Z,5.20
2019-03-05T06:28:38.159Z,5.35
2019-03-05T06:29:11.553Z,5.55
2019-03-05T06:29:45.040Z,5.85
2019-03-05T06:30:18.500Z,5.62
2019-03-05T06:30:51.967Z,5.78
2019-03-05T06:31:25.372Z,5.72
2019-03-05T06:31:58.878Z,6.10
2019-03-05T06:32:32.331Z,6.05
2019-03-05T06:33:05.781Z,5.75
2019-03-05T06:33:39.256Z,4.75
2019-03-05T06:34:12.697Z,4.58
2019-03-05T06:34:46.152Z,5.78
2019-03-05T06:35:19.599Z,5.12
2019-03-05T06:35:53.100Z,4.50
2019-03-05T06:36:26.957Z,5.65
2019-03-05T06:37:00.410Z,5.58
2019-03-05T06:37:33.907Z,5.10
2019-03-05T06:38:07.357Z,5.30
2019-03-05T06:38:40.728Z,5.00
2019-03-05T06:39:14.193Z,4.60
2019-03-05T06:39:47.656Z,6.00
2019-03-05T06:40:21.117Z,5.28
2019-03-05T06:40:54.585Z,5.40
2019-03-05T06:41:28.153Z,5.80
2019-03-05T06:42:01.619Z,6.08
2019-03-05T06:42:35.081Z,5.37
2019-03-05T06:43:08.541Z,5.87
2019-03-05T06:43:42.016Z,5.10
2019-03-05T06:44:15.398Z,5.42
2019-03-05T06:44:48.793Z,5.20
2019-03-05T06:45:22.365Z,5.83
2019-03-05T06:45:55.740Z,5.95
2019-03-05T06:46:30.789Z,5.90
2019-03-05T06:47:04.264Z,6.25
2019-03-05T06:47:37.725Z,5.60
2019-03-05T06:48:11.184Z,5.37
2019-03-05T06:48:44.645Z,5.25
2019-03-05T06:49:18.176Z,5.03
2019-03-05T06:49:51.634Z,6.58
2019-03-05T06:50:25.315Z,5.65
2019-03-05T06:50:58.712Z,5.47
2019-03-05T06:51:32.189Z,6.60
2019-03-05T06:52:05.656Z,5.37
2019-03-05T06:52:39.345Z,5.75
2019-03-05T06:53:12.809Z,5.30
2019-03-05T06:53:46.293Z,5.10
2019-03-05T06:54:19.750Z,5.67
2019-03-05T06:54:53.224Z,5.20
2019-03-05T06:55:26.886Z,5.58
2019-03-05T06:56:00.291Z,6.95
2019-03-05T06:56:33.709Z,4.95
2019-03-05T06:57:07.160Z,6.00
2019-03-05T06:57:40.621Z,5.60
2019-03-05T06:58:14.005Z,5.70
2019-03-05T06:58:47.477Z,6.10
2019-03-05T06:59:20.952Z,5.50
2019-03-05T06:59:54.337Z,5.72
2019-03-05T07:00:32.750Z,4.62
2019-03-05T07:01:06.142Z,5.05
2019-03-05T07:01:40.547Z,5.60
2019-03-05T07:02:14.013Z,5.83
2019-03-05T07:02:47.479Z,5.55
2019-03-05T07:03:20.941Z,5.05
2019-03-05T07:03:54.395Z,4.70
2019-03-05T07:04:27.867Z,5.55
2019-03-05T07:05:01.316Z,4.55
2019-03-05T07:05:52.497Z,5.53
2019-03-05T07:06:54.284Z,5.30
2019-03-05T07:07:28.841Z,4.55
2019-03-05T07:08:02.292Z,5.22
2019-03-05T07:08:36.843Z,5.25
2019-03-05T07:09:18.916Z,6.05
2019-03-05T07:10:03.260Z,5.33
2019-03-05T07:10:42.380Z,4.70
2019-03-05T07:11:33.543Z,5.62
2019-03-05T07:12:17.852Z,4.92
2019-03-05T07:12:54.884Z,5.12
2019-03-05T07:13:28.374Z,5.25
2019-03-05T07:14:02.461Z,5.42
2019-03-05T07:14:39.337Z,5.25
2019-03-05T07:15:46.677Z,5.90
2019-03-05T07:16:22.454Z,5.45
2019-03-05T07:17:01.429Z,7.08
2019-03-05T07:17:38.234Z,5.20
2019-03-05T07:18:13.848Z,5.42
2019-03-05T07:18:52.179Z,5.50
2019-03-05T07:19:34.355Z,5.78
2019-03-05T07:20:25.798Z,6.08
2019-03-05T07:21:18.431Z,5.25
2019-03-05T07:22:11.137Z,4.85
2019-03-05T07:23:03.744Z,5.00
2019-03-05T07:24:08.142Z,5.20
2019-03-05T07:24:48.634Z,6.10
2019-03-05T07:25:22.102Z,5.50
2019-03-05T07:25:55.497Z,5.30
2019-03-05T07:26:28.956Z,4.78
2019-03-05T07:27:02.429Z,4.90
2019-03-05T07:27:40.190Z,5.28
2019-03-05T07:28:13.582Z,5.70
2019-03-05T07:28:47.106Z,5.80
2019-03-05T07:29:20.578Z,5.70
2019-03-05T07:29:54.708Z,6.00
2019-03-05T07:30:28.177Z,6.08
2019-03-05T07:31:01.648Z,6.08
2019-03-05T07:31:35.125Z,5.47
2019-03-05T07:32:08.595Z,6.50
2019-03-05T07:32:42.020Z,6.67
2019-03-05T07:33:15.400Z,5.60
2019-03-05T07:33:48.901Z,5.50
2019-03-05T07:34:25.838Z,5.58
2019-03-05T07:34:59.221Z,5.85
2019-03-05T07:35:33.332Z,5.75
2019-03-05T07:36:07.288Z,5.60
2019-03-05T07:36:40.776Z,5.30
2019-03-05T07:37:14.275Z,5.37
2019-03-05T07:37:47.753Z,5.95
2019-03-05T07:38:21.441Z,5.22
2019-03-05T07:38:54.856Z,5.25
2019-03-05T07:39:28.360Z,6.58
2019-03-05T07:40:01.810Z,5.20
2019-03-05T07:40:35.349Z,6.05
2019-03-05T07:41:08.813Z,4.83
2019-03-05T07:41:42.281Z,6.05
2019-03-05T07:42:15.678Z,5.53
2019-03-05T07:42:49.164Z,5.72
2019-03-05T07:43:22.613Z,5.30
2019-03-05T07:43:56.120Z,4.70
2019-03-05T07:44:29.592Z,4.30
2019-03-05T07:45:03.130Z,5.10
2019-03-05T07:45:36.600Z,5.47
2019-03-05T07:46:10.065Z,5.42
2019-03-05T07:46:43.552Z,4.62
2019-03-05T07:47:17.191Z,4.62
2019-03-05T07:47:50.649Z,4.83
2019-03-05T07:48:24.161Z,5.15
2019-03-05T07:48:57.620Z,5.00
2019-03-05T07:49:31.069Z,4.50
2019-03-05T07:50:05.846Z,5.53
2019-03-05T07:50:39.389Z,4.50
2019-03-05T07:51:12.866Z,4.60
2019-03-05T07:51:46.326Z,4.72
2019-03-05T07:52:19.815Z,4.10
2019-03-05T07:52:53.273Z,5.15
2019-03-05T07:53:27.223Z,4.97
2019-03-05T07:54:00.691Z,4.28
2019-03-05T07:54:34.155Z,4.45
2019-03-05T07:55:13.677Z,4.05
2019-03-05T07:55:44.585Z,4.10
2019-03-05T07:56:18.040Z,4.55
2019-03-05T07:56:51.493Z,5.20
2019-03-05T07:57:24.968Z,4.80
2019-03-05T07:57:58.425Z,4.05
2019-03-05T07:58:31.913Z,3.75
2019-03-05T07:59:05.372Z,4.03
2019-03-05T07:59:38.763Z,4.70
2019-03-05T08:00:13.411Z,3.52
2019-03-05T08:00:46.886Z,4.15
2019-03-05T08:01:22.540Z,4.55